Pagrindinis puslapis
METAR-TAF:

METAR-TAF

Oro uostai :

Apartado, Kolumbija

platuma: 07-49N, ilguma: 076-42W, Aukštis: 20 m

Dabartinis oras

Ataskaita buvo paskelbta 26 minutes, ne 11:00 UTC
Ramus vėjas
Temperatūra 23°C
Drėgmė 100%
Slėgis 1012 hPa
Matomumas 10 km arba daugiau
Išsisklaidę debesys ne aukštis 600 ft

METAR: SKLC 191100Z 00000KT 9999 SCT006 23/23 A2987

Laikas: 06:26 (11:26 UTC)


TAF: trūkstamas

Orai ataskaitas ir orų prognozės (METAR, TAF).

turimą stotys yra geltonos ir raudonos taškus žemėlapyje.

Perkelti pele per norėdami pamatyti stoties vardą.

Tada spustelėkite, norėdami matyti oro stebėjimo ir prognozės.

Norėdami pakeisti žemėlapį: spustelėkite ant žalios mygtukų su juodo kryžiaus žemyn,; žalią mygtuką su brūkšneliu, jei norite nutolinti; arba žalių rodyklių gretimoms žemėlapius.


METAR-TAF: